Time;durP1;ratioP1;P1;durP2;ratioP2;P2;SDS_P1;SDS_P2;PMS_P1;PMS_P2;Temp;Humidity;BMP_temperature;BMP_pressure;BME280_temperature;BME280_humidity;BME280_pressure;Samples;Min_cycle;Max_cycle;Signal;HPM_P1;HPM_P2
2022/07/19 00:01:11;;;;;;;2.47;2.22;;;24.70;71.80;;;;;;5105627;28;20452;-35
2022/07/19 00:03:36;;;;;;;2.65;2.00;;;24.70;71.90;;;;;;5104600;28;20030;-35
2022/07/19 00:06:02;;;;;;;3.15;2.17;;;24.70;72.00;;;;;;5105190;28;20072;-36
2022/07/19 00:08:28;;;;;;;2.80;2.17;;;24.70;72.00;;;;;;5104530;28;20131;-34
2022/07/19 00:10:53;;;;;;;3.90;2.00;;;24.60;72.00;;;;;;5105460;28;20066;-35
2022/07/19 00:13:19;;;;;;;5.15;2.00;;;24.60;72.20;;;;;;5104440;28;20114;-34
2022/07/19 00:15:44;;;;;;;2.33;2.00;;;24.60;72.30;;;;;;5105213;28;20019;-34
2022/07/19 00:18:10;;;;;;;2.03;1.90;;;24.50;72.40;;;;;;5105521;28;20376;-34
2022/07/19 00:20:35;;;;;;;2.38;1.90;;;24.50;72.50;;;;;;5104178;28;20552;-34
2022/07/19 00:23:01;;;;;;;1.85;1.70;;;24.50;72.70;;;;;;5105478;28;20532;-33
2022/07/19 00:25:26;;;;;;;2.33;2.13;;;24.50;73.00;;;;;;5103566;28;20027;-35
2022/07/19 00:27:52;;;;;;;2.45;1.90;;;24.40;73.00;;;;;;5105316;28;20083;-34
2022/07/19 00:30:17;;;;;;;2.00;1.83;;;24.40;73.10;;;;;;5104999;28;20572;-34
2022/07/19 00:32:43;;;;;;;2.08;1.80;;;24.40;73.30;;;;;;5105315;28;20020;-35
2022/07/19 00:35:09;;;;;;;2.28;1.83;;;24.30;73.30;;;;;;5105869;28;20039;-35
2022/07/19 00:37:34;;;;;;;2.10;1.90;;;24.30;73.30;;;;;;5108634;28;20043;-35
2022/07/19 00:40:01;;;;;;;2.20;2.00;;;24.30;73.40;;;;;;5109098;28;20110;-37
2022/07/19 00:42:26;;;;;;;3.78;2.13;;;24.30;73.50;;;;;;5108927;28;20051;-35
2022/07/19 00:44:52;;;;;;;2.40;2.15;;;24.20;73.60;;;;;;5109302;28;20054;-34
2022/07/19 00:47:17;;;;;;;2.97;1.67;;;24.20;73.70;;;;;;5108876;28;20430;-35
2022/07/19 00:49:43;;;;;;;2.85;1.88;;;24.20;73.80;;;;;;5108747;28;20016;-34
2022/07/19 00:52:09;;;;;;;2.17;1.98;;;24.10;73.90;;;;;;5108851;28;20495;-35
2022/07/19 00:54:38;;;;;;;2.17;1.98;;;24.10;74.10;;;;;;5107732;28;20019;-35
2022/07/19 00:57:04;;;;;;;3.95;1.90;;;24.00;74.10;;;;;;5109622;28;20032;-33
2022/07/19 00:59:31;;;;;;;2.47;1.90;;;24.00;74.20;;;;;;5108468;28;20461;-35
2022/07/19 01:01:58;;;;;;;2.45;2.15;;;24.00;74.30;;;;;;5108801;28;20019;-35
2022/07/19 01:04:24;;;;;;;2.00;1.80;;;24.00;74.40;;;;;;5108815;28;20059;-34
2022/07/19 01:06:49;;;;;;;3.75;1.90;;;23.90;74.40;;;;;;5108772;28;20124;-35
2022/07/19 01:09:15;;;;;;;2.22;1.98;;;23.90;74.40;;;;;;5108628;28;20092;-35
2022/07/19 01:11:41;;;;;;;3.67;2.38;;;23.90;74.50;;;;;;5108303;28;20020;-35
2022/07/19 01:14:06;;;;;;;2.20;2.00;;;23.90;74.60;;;;;;5108808;28;20517;-35
2022/07/19 01:16:32;;;;;;;2.78;2.22;;;23.80;74.60;;;;;;5107649;28;20855;-35
2022/07/19 01:18:57;;;;;;;2.58;2.28;;;23.80;74.50;;;;;;5109197;28;20043;-35
2022/07/19 01:21:25;;;;;;;3.88;2.53;;;23.80;74.50;;;;;;5107959;28;20081;-34
2022/07/19 01:23:50;;;;;;;2.28;2.08;;;23.80;74.40;;;;;;5107902;28;20056;-35
2022/07/19 01:26:17;;;;;;;2.25;2.00;;;23.70;74.40;;;;;;5108333;28;20038;-33
2022/07/19 01:28:44;;;;;;;3.38;2.42;;;23.80;74.40;;;;;;5107433;28;20024;-37
2022/07/19 01:31:09;;;;;;;3.03;2.40;;;23.80;74.30;;;;;;5108118;28;20283;-35
2022/07/19 01:33:42;;;;;;;2.67;2.15;;;23.80;74.30;;;;;;5107752;28;20117;-36
2022/07/19 01:36:08;;;;;;;2.58;2.10;;;23.80;74.20;;;;;;5107362;28;20027;-36
2022/07/19 01:38:34;;;;;;;2.50;2.15;;;23.80;74.10;;;;;;5107352;28;20078;-34
2022/07/19 01:41:00;;;;;;;2.28;2.03;;;23.80;74.00;;;;;;5107613;28;20782;-36
2022/07/19 01:43:25;;;;;;;2.63;2.20;;;23.80;73.90;;;;;;5106775;28;20024;-34
2022/07/19 01:45:53;;;;;;;2.97;2.30;;;23.90;74.10;;;;;;5107916;28;20123;-36
2022/07/19 01:48:19;;;;;;;2.92;2.22;;;23.90;74.20;;;;;;5106341;28;20031;-35
2022/07/19 01:50:45;;;;;;;2.65;2.20;;;23.90;74.30;;;;;;5107255;28;20024;-35
2022/07/19 01:53:10;;;;;;;3.38;2.50;;;23.80;74.30;;;;;;5107367;28;20035;-34
2022/07/19 01:55:36;;;;;;;3.22;2.30;;;23.80;74.40;;;;;;5107414;28;20108;-35
2022/07/19 01:58:01;;;;;;;3.20;2.60;;;23.80;74.60;;;;;;5107424;28;20107;-35
2022/07/19 02:00:27;;;;;;;2.95;2.30;;;23.80;74.70;;;;;;5107021;28;20463;-33
2022/07/19 02:02:52;;;;;;;2.58;1.90;;;23.70;74.80;;;;;;5107954;28;20581;-35
2022/07/19 02:05:18;;;;;;;2.45;2.20;;;23.70;75.60;;;;;;5106620;28;20038;-34
2022/07/19 02:07:44;;;;;;;3.20;2.28;;;23.70;75.10;;;;;;5107381;28;20548;-34
2022/07/19 02:10:09;;;;;;;2.70;2.10;;;23.60;75.10;;;;;;5107943;28;20032;-35
2022/07/19 02:12:35;;;;;;;2.63;2.10;;;23.60;75.10;;;;;;5106296;28;20038;-35
2022/07/19 02:15:01;;;;;;;2.30;2.10;;;23.60;75.30;;;;;;5107683;28;20024;-35
2022/07/19 02:17:26;;;;;;;3.05;2.35;;;23.60;75.40;;;;;;5106507;28;20020;-34
2022/07/19 02:19:52;;;;;;;2.50;2.08;;;23.50;75.50;;;;;;5106978;28;20145;-37
2022/07/19 02:22:17;;;;;;;5.00;2.00;;;23.50;75.50;;;;;;5107072;28;20026;-35
2022/07/19 02:24:42;;;;;;;2.83;2.40;;;23.50;75.70;;;;;;5106699;28;20522;-35
2022/07/19 02:27:10;;;;;;;2.10;1.83;;;23.40;75.70;;;;;;5107044;28;20020;-36
2022/07/19 02:29:35;;;;;;;2.45;1.90;;;23.40;75.80;;;;;;5106362;28;20019;-34
2022/07/19 02:32:01;;;;;;;3.60;2.00;;;23.40;75.90;;;;;;5107199;28;20020;-34
2022/07/19 02:34:26;;;;;;;2.10;1.88;;;23.40;75.80;;;;;;5106864;28;20015;-35
2022/07/19 02:36:52;;;;;;;2.78;1.70;;;23.30;75.70;;;;;;5107352;28;20681;-35
2022/07/19 02:39:17;;;;;;;2.53;1.73;;;23.30;75.60;;;;;;5106171;28;20455;-35
2022/07/19 02:41:43;;;;;;;2.75;1.92;;;23.30;75.50;;;;;;5106728;28;20015;-35
2022/07/19 02:44:08;;;;;;;1.98;1.80;;;23.40;75.50;;;;;;5106805;28;20444;-34
2022/07/19 02:46:34;;;;;;;3.75;2.00;;;23.30;75.40;;;;;;5105864;28;20034;-34
2022/07/19 02:49:00;;;;;;;2.35;1.77;;;23.30;75.40;;;;;;5107406;28;20029;-35
2022/07/19 02:51:25;;;;;;;1.90;1.80;;;23.30;75.30;;;;;;5106330;28;20019;-35
2022/07/19 02:53:51;;;;;;;1.90;1.70;;;23.30;75.20;;;;;;5104704;28;20041;-35
2022/07/19 02:56:17;;;;;;;3.38;2.10;;;23.30;75.20;;;;;;5104968;28;20027;-36
2022/07/19 02:58:42;;;;;;;2.17;1.75;;;23.30;75.10;;;;;;5105700;28;20039;-35
2022/07/19 03:01:08;;;;;;;2.05;1.70;;;23.30;74.90;;;;;;5106078;28;20051;-34
2022/07/19 03:03:43;;;;;;;1.60;1.50;;;23.20;74.70;;;;;;5106533;28;20031;-33
2022/07/19 03:06:10;;;;;;;2.17;1.58;;;23.30;74.60;;;;;;5103486;28;20015;-34
2022/07/19 03:08:36;;;;;;;2.03;1.55;;;23.30;74.40;;;;;;5105195;28;20047;-34
2022/07/19 03:11:01;;;;;;;1.88;1.50;;;23.30;74.20;;;;;;5106753;28;20379;-34
2022/07/19 03:13:27;;;;;;;1.38;1.27;;;23.30;74.00;;;;;;5105610;28;20031;-34
2022/07/19 03:15:52;;;;;;;1.95;1.50;;;23.30;73.80;;;;;;5106038;28;20385;-34
2022/07/19 03:18:18;;;;;;;3.00;1.50;;;23.30;73.70;;;;;;5105895;28;20035;-35
2022/07/19 03:20:44;;;;;;;1.95;1.60;;;23.30;73.40;;;;;;5105074;28;20027;-36
2022/07/19 03:23:09;;;;;;;1.70;1.38;;;23.40;73.40;;;;;;5105549;28;20016;-36
2022/07/19 03:25:35;;;;;;;1.90;1.60;;;23.30;73.30;;;;;;5105652;28;20470;-34
2022/07/19 03:28:01;;;;;;;2.40;1.60;;;23.30;73.20;;;;;;5106732;28;20545;-34
2022/07/19 03:30:29;;;;;;;1.75;1.60;;;23.30;73.10;;;;;;5104532;28;20350;-34
2022/07/19 03:32:55;;;;;;;1.73;1.45;;;23.40;73.10;;;;;;5106301;28;20028;-35
2022/07/19 03:35:20;;;;;;;2.95;1.65;;;23.40;73.00;;;;;;5104439;28;20425;-35
2022/07/19 03:37:46;;;;;;;1.75;1.63;;;23.40;72.80;;;;;;5105991;28;20080;-35
2022/07/19 03:40:12;;;;;;;3.03;1.48;;;23.40;72.70;;;;;;5105583;28;20023;-36
2022/07/19 03:42:38;;;;;;;1.75;1.40;;;23.40;72.60;;;;;;5104574;28;20443;-33
2022/07/19 03:45:04;;;;;;;1.67;1.48;;;23.40;72.70;;;;;;5105906;28;20426;-34
2022/07/19 03:47:30;;;;;;;1.58;1.33;;;23.40;72.70;;;;;;5104473;28;20503;-34
2022/07/19 03:49:57;;;;;;;1.40;1.30;;;23.30;72.70;;;;;;5105226;28;20103;-34
2022/07/19 03:52:23;;;;;;;1.98;1.67;;;23.30;72.70;;;;;;5105836;28;20095;-35
2022/07/19 03:54:48;;;;;;;1.75;1.60;;;23.30;72.70;;;;;;5104947;28;20023;-34
2022/07/19 03:57:14;;;;;;;2.17;1.23;;;23.30;72.80;;;;;;5104949;28;20097;-37
2022/07/19 03:59:39;;;;;;;2.40;1.42;;;23.20;72.60;;;;;;5105764;28;20101;-36
2022/07/19 04:02:05;;;;;;;1.30;1.15;;;23.30;72.60;;;;;;5105317;28;20485;-36
2022/07/19 04:04:31;;;;;;;2.05;1.20;;;23.20;72.60;;;;;;5104267;28;20023;-34
2022/07/19 04:06:57;;;;;;;1.42;1.33;;;23.20;72.50;;;;;;5105720;28;20015;-34
2022/07/19 04:09:23;;;;;;;2.13;1.73;;;23.20;72.30;;;;;;5105190;28;20040;-35
2022/07/19 04:11:49;;;;;;;1.88;1.20;;;23.30;72.30;;;;;;5104179;28;20108;-33
2022/07/19 04:14:14;;;;;;;1.30;1.20;;;23.30;72.10;;;;;;5105060;28;20483;-34
2022/07/19 04:16:40;;;;;;;1.33;1.20;;;23.30;72.10;;;;;;5104819;28;20110;-34
2022/07/19 04:19:06;;;;;;;1.90;1.48;;;23.40;71.70;;;;;;5105234;28;20081;-34
2022/07/19 04:21:31;;;;;;;1.10;1.10;;;23.50;71.50;;;;;;5104406;28;20540;-35
2022/07/19 04:23:57;;;;;;;1.20;1.10;;;23.50;71.40;;;;;;5105978;28;20055;-35
2022/07/19 04:26:23;;;;;;;1.45;1.10;;;23.50;71.30;;;;;;5104410;28;20030;-34
2022/07/19 04:28:48;;;;;;;2.38;1.30;;;23.50;71.30;;;;;;5105311;28;20015;-35
2022/07/19 04:31:14;;;;;;;1.73;1.20;;;23.60;71.40;;;;;;5104801;28;20032;-36
2022/07/19 04:33:40;;;;;;;2.30;0.95;;;23.50;71.50;;;;;;5103721;28;20032;-34
2022/07/19 04:36:06;;;;;;;1.30;1.20;;;23.50;71.40;;;;;;5105296;28;20015;-34
2022/07/19 04:38:31;;;;;;;1.42;1.30;;;23.50;71.40;;;;;;5104041;28;20432;-35
2022/07/19 04:40:57;;;;;;;1.88;1.40;;;23.50;71.40;;;;;;5105052;28;20065;-36
2022/07/19 04:43:22;;;;;;;1.13;0.98;;;23.50;71.40;;;;;;5104211;28;20036;-35
2022/07/19 04:45:48;;;;;;;3.00;1.25;;;23.60;71.50;;;;;;5104179;28;20069;-35
2022/07/19 04:48:13;;;;;;;2.17;1.10;;;23.50;71.60;;;;;;5105298;28;20497;-35
2022/07/19 04:50:40;;;;;;;1.67;1.20;;;23.50;71.50;;;;;;5104579;28;20126;-35
2022/07/19 04:53:07;;;;;;;2.03;1.30;;;23.50;71.40;;;;;;5104422;28;20023;-33
2022/07/19 04:55:32;;;;;;;1.45;1.00;;;23.60;71.40;;;;;;5104511;28;20059;-35
2022/07/19 04:57:58;;;;;;;1.23;1.10;;;23.60;71.40;;;;;;5104580;28;20119;-33
2022/07/19 05:00:23;;;;;;;3.00;1.23;;;23.60;71.60;;;;;;5104337;28;20471;-35
2022/07/19 05:02:49;;;;;;;1.83;1.30;;;23.60;71.80;;;;;;5104408;28;20122;-35
2022/07/19 05:05:15;;;;;;;1.33;1.23;;;23.60;72.70;;;;;;5104340;28;20074;-34
2022/07/19 05:07:41;;;;;;;1.63;1.52;;;23.60;72.40;;;;;;5104413;28;20023;-34
2022/07/19 05:10:07;;;;;;;1.55;1.45;;;23.60;72.80;;;;;;5104668;28;20024;-35
2022/07/19 05:12:33;;;;;;;2.03;1.20;;;23.50;73.20;;;;;;5104233;28;20051;-35
2022/07/19 05:14:59;;;;;;;2.03;1.35;;;23.50;73.40;;;;;;5104548;28;20100;-35
2022/07/19 05:17:25;;;;;;;2.25;1.63;;;23.50;73.70;;;;;;5104203;28;20023;-36
2022/07/19 05:19:51;;;;;;;2.70;2.10;;;23.50;73.90;;;;;;5104241;28;20107;-34
2022/07/19 05:22:17;;;;;;;4.10;2.67;;;23.50;74.00;;;;;;5105024;28;20508;-34
2022/07/19 05:24:42;;;;;;;3.00;2.60;;;23.50;74.20;;;;;;5107753;28;20063;-34
2022/07/19 05:27:08;;;;;;;3.65;2.70;;;23.50;74.40;;;;;;5108939;28;20019;-34
2022/07/19 05:29:34;;;;;;;3.15;2.67;;;23.50;74.50;;;;;;5107615;28;20028;-35
2022/07/19 05:31:59;;;;;;;2.97;2.13;;;23.60;74.80;;;;;;5107964;28;20484;-35
2022/07/19 05:34:25;;;;;;;2.72;2.13;;;23.60;74.90;;;;;;5107111;28;20067;-34
2022/07/19 05:36:50;;;;;;;2.72;1.80;;;23.60;74.90;;;;;;5107866;28;20149;-34
2022/07/19 05:39:16;;;;;;;2.67;1.73;;;23.60;74.90;;;;;;5108220;28;20082;-34
2022/07/19 05:41:42;;;;;;;2.00;1.80;;;23.60;74.70;;;;;;5107620;28;20020;-34
2022/07/19 05:44:07;;;;;;;2.00;1.67;;;23.60;74.60;;;;;;5107442;28;20287;-33
2022/07/19 05:46:37;;;;;;;1.95;1.75;;;23.70;74.80;;;;;;5107224;28;20047;-35
2022/07/19 05:49:02;;;;;;;3.58;1.70;;;23.70;75.30;;;;;;5108039;28;20043;-36
2022/07/19 05:51:28;;;;;;;3.50;2.08;;;23.80;74.50;;;;;;5107439;28;20024;-35
2022/07/19 05:53:53;;;;;;;1.95;1.85;;;23.80;74.40;;;;;;5107713;28;20024;-34
2022/07/19 05:56:19;;;;;;;3.67;1.60;;;23.90;74.40;;;;;;5107308;28;20020;-34
2022/07/19 05:58:44;;;;;;;2.10;1.67;;;23.90;74.30;;;;;;5107867;28;20039;-35
2022/07/19 06:01:19;;;;;;;3.72;1.90;;;24.00;74.30;;;;;;5107687;28;20487;-34
2022/07/19 06:04:00;;;;;;;1.77;1.67;;;24.00;74.20;;;;;;5087275;28;20463;-36
2022/07/19 06:06:28;;;;;;;2.30;1.63;;;24.10;74.90;;;;;;5103437;28;20034;-35
2022/07/19 06:08:54;;;;;;;1.63;1.25;;;24.10;74.10;;;;;;5087081;28;20379;-35
2022/07/19 06:11:20;;;;;;;2.90;1.65;;;24.10;74.10;;;;;;5101467;28;20068;-35
2022/07/19 06:13:46;;;;;;;2.00;1.80;;;24.20;74.20;;;;;;5108004;28;20020;-34
2022/07/19 06:16:13;;;;;;;3.17;1.80;;;24.20;74.30;;;;;;5107845;28;20024;-34
2022/07/19 06:18:38;;;;;;;3.72;1.90;;;24.20;74.40;;;;;;5106958;28;20047;-34
2022/07/19 06:21:07;;;;;;;2.40;1.98;;;24.30;74.40;;;;;;5107726;28;20019;-34
2022/07/19 06:23:33;;;;;;;3.28;2.22;;;24.30;74.40;;;;;;5106650;28;20187;-34
2022/07/19 06:25:59;;;;;;;2.30;2.10;;;24.30;74.20;;;;;;5106904;28;20587;-34
2022/07/19 06:28:25;;;;;;;2.53;2.05;;;24.40;74.20;;;;;;5107048;28;20085;-34
2022/07/19 06:30:51;;;;;;;3.53;2.17;;;24.40;74.00;;;;;;5106798;28;20028;-34
2022/07/19 06:33:17;;;;;;;5.68;2.53;;;24.50;74.00;;;;;;5106082;28;20026;-36
2022/07/19 06:35:42;;;;;;;6.10;2.50;;;24.50;74.00;;;;;;5106758;28;20035;-35
2022/07/19 06:38:08;;;;;;;4.63;2.58;;;24.50;74.00;;;;;;5107207;28;20031;-35
2022/07/19 06:40:34;;;;;;;3.80;2.58;;;24.60;73.90;;;;;;5106053;28;20024;-35
2022/07/19 06:42:59;;;;;;;2.75;2.22;;;24.60;73.90;;;;;;5106458;28;20729;-35
2022/07/19 06:45:25;;;;;;;3.47;2.45;;;24.60;73.80;;;;;;5105694;28;20019;-35
2022/07/19 06:47:51;;;;;;;2.75;2.35;;;24.70;73.80;;;;;;5106903;28;20031;-35
2022/07/19 06:50:20;;;;;;;3.17;2.40;;;24.70;73.70;;;;;;5106526;28;20038;-35
2022/07/19 06:52:45;;;;;;;3.72;2.53;;;24.80;73.70;;;;;;5105565;28;20473;-36
2022/07/19 06:55:11;;;;;;;3.40;2.17;;;24.90;73.70;;;;;;5107145;28;20023;-35
2022/07/19 06:57:37;;;;;;;2.15;1.80;;;24.90;73.60;;;;;;5105868;28;20040;-36
2022/07/19 07:00:04;;;;;;;4.13;2.10;;;24.90;73.40;;;;;;5106058;28;20028;-34
2022/07/19 07:02:30;;;;;;;4.47;2.45;;;25.00;73.30;;;;;;5106581;28;20157;-34
2022/07/19 07:04:55;;;;;;;3.67;2.55;;;25.00;73.30;;;;;;5106686;28;20146;-35
2022/07/19 07:07:21;;;;;;;3.17;2.35;;;25.10;73.40;;;;;;5105983;28;20038;-34
2022/07/19 07:09:46;;;;;;;3.75;2.50;;;25.10;74.00;;;;;;5106393;28;20051;-35
2022/07/19 07:12:12;;;;;;;3.88;2.40;;;25.20;73.40;;;;;;5106515;28;20020;-35
2022/07/19 07:14:38;;;;;;;4.50;2.28;;;25.20;73.40;;;;;;5105906;28;20027;-35
2022/07/19 07:17:03;;;;;;;2.90;2.17;;;25.20;73.40;;;;;;5106564;28;20031;-36
2022/07/19 07:19:29;;;;;;;2.55;2.08;;;25.30;73.30;;;;;;5106295;28;20433;-34
2022/07/19 07:21:57;;;;;;;2.35;1.90;;;25.30;73.20;;;;;;5106482;28;20023;-35
2022/07/19 07:24:22;;;;;;;3.95;2.15;;;25.30;73.10;;;;;;5106027;28;20421;-36
2022/07/19 07:26:48;;;;;;;3.42;2.20;;;25.40;73.10;;;;;;5106381;28;20474;-36
2022/07/19 07:29:14;;;;;;;2.45;1.77;;;25.40;73.10;;;;;;5106031;28;20028;-35
2022/07/19 07:31:39;;;;;;;2.35;2.00;;;25.50;73.20;;;;;;5086284;28;20061;-35
2022/07/19 07:34:05;;;;;;;2.67;2.30;;;25.50;73.30;;;;;;5100589;28;20375;-34
2022/07/19 07:36:30;;;;;;;3.17;2.30;;;25.50;73.30;;;;;;5105445;28;20034;-34
2022/07/19 07:38:56;;;;;;;2.50;2.00;;;25.60;73.40;;;;;;5105819;28;20077;-35
2022/07/19 07:41:21;;;;;;;3.45;2.10;;;25.70;73.40;;;;;;5105699;28;20008;-36
2022/07/19 07:43:47;;;;;;;2.38;2.08;;;25.80;73.20;;;;;;5105709;28;20375;-34
2022/07/19 07:46:12;;;;;;;2.35;1.95;;;25.80;73.10;;;;;;5105112;28;20487;-34
2022/07/19 07:48:38;;;;;;;2.15;1.77;;;25.80;73.20;;;;;;5105476;28;20152;-34
2022/07/19 07:51:04;;;;;;;2.38;2.00;;;25.90;73.20;;;;;;5106371;28;20024;-34
2022/07/19 07:53:30;;;;;;;2.10;1.80;;;25.90;73.00;;;;;;5105043;28;20043;-35
2022/07/19 07:55:56;;;;;;;3.08;1.90;;;26.00;72.90;;;;;;5105646;28;20022;-35
2022/07/19 07:58:21;;;;;;;2.65;1.80;;;26.00;73.00;;;;;;5105757;28;20035;-36
2022/07/19 08:00:47;;;;;;;3.75;1.67;;;26.10;73.00;;;;;;5105178;28;20020;-36
2022/07/19 08:03:12;;;;;;;2.90;1.65;;;26.10;73.00;;;;;;5105373;28;20164;-35
2022/07/19 08:05:39;;;;;;;3.63;2.05;;;26.20;73.20;;;;;;5105600;28;20018;-35
2022/07/19 08:08:04;;;;;;;2.13;1.48;;;26.20;73.20;;;;;;5105638;28;20467;-35
2022/07/19 08:10:32;;;;;;;2.47;1.83;;;26.30;73.10;;;;;;5104750;28;20077;-34
2022/07/19 08:12:58;;;;;;;2.40;1.70;;;26.30;73.00;;;;;;5105871;28;20435;-35
2022/07/19 08:15:24;;;;;;;2.60;1.70;;;26.40;73.00;;;;;;5105024;28;20030;-36
2022/07/19 08:17:49;;;;;;;3.13;1.58;;;26.50;73.10;;;;;;5105505;28;20024;-36
2022/07/19 08:20:15;;;;;;;3.60;1.90;;;26.50;73.00;;;;;;5105122;28;20028;-35
2022/07/19 08:22:41;;;;;;;2.80;1.80;;;26.60;72.90;;;;;;5104442;28;20050;-35
2022/07/19 08:25:07;;;;;;;2.35;1.95;;;26.70;72.90;;;;;;5104473;28;20138;-36
2022/07/19 08:27:33;;;;;;;2.88;1.70;;;26.70;72.80;;;;;;5105620;28;20027;-35
2022/07/19 08:29:59;;;;;;;1.67;1.35;;;26.70;72.80;;;;;;5105027;28;20031;-34
2022/07/19 08:32:25;;;;;;;2.80;1.55;;;26.70;72.60;;;;;;5104659;28;20020;-33
2022/07/19 08:34:51;;;;;;;1.88;1.27;;;26.80;72.50;;;;;;5104986;28;20050;-36
2022/07/19 08:37:16;;;;;;;1.48;1.38;;;26.90;72.40;;;;;;5104804;28;20019;-35
2022/07/19 08:39:42;;;;;;;4.47;2.28;;;27.00;72.20;;;;;;5104189;28;20038;-34
2022/07/19 08:42:09;;;;;;;3.22;1.70;;;27.10;72.10;;;;;;5105082;28;20031;-35
2022/07/19 08:44:38;;;;;;;1.98;1.70;;;27.10;72.00;;;;;;5104961;28;20019;-35
2022/07/19 08:47:05;;;;;;;1.65;1.50;;;27.20;72.10;;;;;;5104169;28;20495;-34
2022/07/19 08:49:31;;;;;;;1.80;1.33;;;27.30;71.90;;;;;;5104529;28;20051;-37
2022/07/19 08:52:01;;;;;;;3.85;1.58;;;27.30;71.60;;;;;;5104026;28;20036;-34
2022/07/19 08:54:26;;;;;;;2.70;1.50;;;27.40;71.50;;;;;;5084161;28;20024;-35
2022/07/19 08:59:36;;;;;;;1.73;1.40;;;27.60;71.30;;;;;;5088232;28;20402;-34
2022/07/19 09:02:02;;;;;;;1.85;1.60;;;27.60;71.20;;;;;;5103173;28;20562;-35
2022/07/19 09:04:28;;;;;;;1.63;1.50;;;27.70;71.10;;;;;;5108546;28;20590;-36
2022/07/19 09:06:58;;;;;;;5.28;1.50;;;27.80;70.90;;;;;;5108210;28;20028;-35
2022/07/19 09:09:25;;;;;;;2.15;1.67;;;27.90;70.70;;;;;;5108410;28;20566;-34
2022/07/19 09:11:52;;;;;;;1.50;1.30;;;28.00;70.60;;;;;;5108619;28;20020;-35
2022/07/19 09:14:25;;;;;;;2.10;1.45;;;28.10;70.50;;;;;;5108064;28;20578;-35
2022/07/19 09:17:02;;;;;;;2.85;1.45;;;28.10;70.20;;;;;;5108506;28;20379;-34
2022/07/19 09:19:32;;;;;;;1.58;1.48;;;28.10;70.00;;;;;;5108422;28;20050;-34
2022/07/19 09:22:06;;;;;;;4.95;1.65;;;28.20;69.70;;;;;;5108060;28;20148;-34
2022/07/19 09:24:35;;;;;;;1.60;1.40;;;28.20;69.50;;;;;;5107860;28;20055;-35
2022/07/19 09:27:03;;;;;;;2.28;1.42;;;28.30;69.50;;;;;;5108399;28;20016;-36
2022/07/19 09:29:31;;;;;;;2.15;1.23;;;28.30;69.20;;;;;;5107878;28;20019;-35
2022/07/19 09:31:59;;;;;;;2.70;1.42;;;28.30;69.00;;;;;;5108379;28;20042;-36
2022/07/19 09:34:39;;;;;;;3.15;1.30;;;28.40;68.90;;;;;;5107457;28;20028;-35
2022/07/19 09:37:14;;;;;;;1.40;1.30;;;28.50;68.70;;;;;;5108262;28;20513;-36
2022/07/19 09:39:44;;;;;;;3.55;1.67;;;28.60;68.50;;;;;;5096848;28;20047;-36
2022/07/19 09:42:11;;;;;;;2.67;1.38;;;28.70;68.30;;;;;;5108041;28;20367;-35
2022/07/19 09:44:37;;;;;;;1.60;1.40;;;28.80;68.10;;;;;;5107798;28;20114;-36
2022/07/19 09:47:03;;;;;;;1.38;1.20;;;28.90;68.10;;;;;;5108363;28;20468;-35
2022/07/19 09:49:29;;;;;;;1.52;1.42;;;28.90;67.90;;;;;;5106766;28;20023;-36
2022/07/19 09:51:55;;;;;;;4.72;1.30;;;28.90;67.90;;;;;;5108347;28;20025;-36
2022/07/19 09:54:26;;;;;;;2.65;1.73;;;28.90;67.90;;;;;;5107429;28;20065;-35
2022/07/19 09:56:53;;;;;;;1.80;1.20;;;29.00;68.00;;;;;;5107741;28;20027;-36
2022/07/19 09:59:21;;;;;;;2.20;1.27;;;29.00;68.00;;;;;;5107619;28;20039;-35
2022/07/19 10:01:48;;;;;;;2.30;1.45;;;29.00;67.90;;;;;;5107414;28;20024;-35
2022/07/19 10:04:16;;;;;;;2.00;1.52;;;29.10;67.90;;;;;;5107216;28;20032;-36
2022/07/19 10:06:43;;;;;;;1.40;1.30;;;29.10;67.80;;;;;;5107974;28;20055;-35
2022/07/19 10:09:11;;;;;;;2.05;1.30;;;29.20;67.70;;;;;;5106954;28;20019;-35
2022/07/19 10:11:38;;;;;;;3.20;1.70;;;29.20;67.60;;;;;;5107377;28;20025;-34
2022/07/19 10:14:04;;;;;;;2.17;1.67;;;29.20;67.60;;;;;;5107346;28;20020;-34
2022/07/19 10:17:00;;;;;;;3.80;1.50;;;29.30;67.60;;;;;;5106465;28;20130;-35
2022/07/19 10:19:34;;;;;;;1.80;1.40;;;29.40;67.50;;;;;;5105043;28;20134;-35
2022/07/19 10:22:01;;;;;;;1.77;1.63;;;29.50;67.60;;;;;;5107651;28;20023;-34
2022/07/19 10:24:54;;;;;;;1.65;1.38;;;29.50;67.50;;;;;;5105930;28;20055;-35
2022/07/19 10:27:25;;;;;;;4.50;1.70;;;29.60;67.40;;;;;;5107007;28;20455;-36
2022/07/19 10:30:12;;;;;;;5.03;1.80;;;29.80;67.20;;;;;;5106728;28;20490;-34
2022/07/19 10:32:46;;;;;;;5.15;1.60;;;29.90;67.00;;;;;;5106348;28;20042;-35
2022/07/19 10:35:26;;;;;;;2.70;1.50;;;30.00;66.40;;;;;;5106879;28;20458;-35
2022/07/19 10:38:13;;;;;;;2.15;1.40;;;30.10;66.40;;;;;;5107050;28;20019;-36
2022/07/19 10:40:56;;;;;;;3.80;1.90;;;30.10;66.30;;;;;;5105929;28;20539;-36
2022/07/19 10:43:27;;;;;;;2.42;1.58;;;30.20;66.00;;;;;;5106838;28;20429;-33
2022/07/19 10:45:56;;;;;;;2.33;1.40;;;30.20;65.80;;;;;;5106557;28;20607;-35
2022/07/19 10:48:35;;;;;;;1.48;1.33;;;30.30;65.50;;;;;;5106391;28;20265;-36
2022/07/19 10:51:01;;;;;;;1.75;1.30;;;30.30;65.30;;;;;;5106865;28;20020;-36
2022/07/19 10:53:42;;;;;;;2.33;1.55;;;30.40;64.80;;;;;;5106367;28;20479;-34
2022/07/19 10:56:18;;;;;;;2.47;1.65;;;30.50;64.40;;;;;;5106389;28;20262;-35
2022/07/19 10:59:11;;;;;;;3.25;1.30;;;30.60;64.00;;;;;;5085560;28;20044;-37
2022/07/19 11:01:52;;;;;;;1.60;1.48;;;30.70;63.60;;;;;;5102221;28;20047;-35
2022/07/19 11:04:32;;;;;;;1.45;1.33;;;30.70;63.50;;;;;;5106400;28;20102;-36
2022/07/19 11:07:15;;;;;;;2.13;1.40;;;30.70;63.30;;;;;;5105887;28;20096;-36
2022/07/19 11:09:46;;;;;;;1.40;1.13;;;30.80;63.10;;;;;;5105737;28;20058;-37
2022/07/19 11:12:33;;;;;;;1.38;1.17;;;30.80;62.50;;;;;;5105435;28;20034;-34
2022/07/19 11:15:02;;;;;;;2.83;1.30;;;30.90;62.60;;;;;;5106475;28;20441;-35
2022/07/19 11:17:27;;;;;;;1.88;1.25;;;30.90;62.40;;;;;;5105547;28;20509;-35
2022/07/19 11:20:10;;;;;;;1.48;1.30;;;31.00;62.40;;;;;;5105808;28;20035;-35
2022/07/19 11:22:45;;;;;;;1.40;1.30;;;31.00;62.20;;;;;;5105273;28;20038;-37
2022/07/19 11:25:12;;;;;;;2.05;1.48;;;31.00;62.00;;;;;;5105702;28;20442;-35
2022/07/19 11:27:42;;;;;;;3.47;1.40;;;31.10;62.00;;;;;;5104893;28;20102;-35
2022/07/19 11:30:09;;;;;;;2.42;1.20;;;31.20;62.00;;;;;;5105879;28;20038;-34
2022/07/19 11:32:35;;;;;;;1.60;1.20;;;31.30;62.10;;;;;;5104676;28;20491;-36
2022/07/19 11:35:06;;;;;;;1.50;1.30;;;31.30;62.00;;;;;;5106109;28;20153;-35
2022/07/19 11:37:35;;;;;;;2.30;1.42;;;31.30;61.90;;;;;;5105006;28;20423;-35
2022/07/19 11:40:01;;;;;;;1.40;1.30;;;31.40;61.90;;;;;;5086270;28;20032;-34
2022/07/19 11:42:36;;;;;;;1.80;1.30;;;31.50;61.80;;;;;;5099004;28;20019;-35
2022/07/19 11:45:15;;;;;;;2.85;1.65;;;31.60;61.80;;;;;;5106155;28;20027;-35
2022/07/19 11:47:46;;;;;;;2.25;1.70;;;31.60;61.20;;;;;;5105194;28;20019;-35
2022/07/19 11:50:14;;;;;;;1.48;1.30;;;31.80;60.70;;;;;;5105473;28;20032;-36
2022/07/19 11:52:52;;;;;;;2.83;1.70;;;32.00;60.30;;;;;;5105232;28;20028;-36
2022/07/19 11:55:26;;;;;;;3.13;1.60;;;32.20;59.90;;;;;;5105267;28;20106;-35
2022/07/19 11:57:53;;;;;;;2.10;1.60;;;32.30;59.90;;;;;;5105527;28;20034;-35
2022/07/19 12:00:19;;;;;;;1.95;1.40;;;32.30;59.90;;;;;;5105603;28;20020;-36
2022/07/19 12:02:58;;;;;;;1.65;1.40;;;32.30;59.50;;;;;;5104936;28;20015;-37
2022/07/19 12:05:25;;;;;;;1.88;1.23;;;32.40;59.20;;;;;;5105076;28;20471;-34
2022/07/19 12:07:52;;;;;;;1.38;1.10;;;32.50;58.90;;;;;;5105217;28;20139;-37
2022/07/19 12:10:49;;;;;;;2.67;1.60;;;32.50;58.90;;;;;;5104518;28;20028;-35
2022/07/19 12:13:28;;;;;;;3.97;1.65;;;32.60;58.70;;;;;;5105076;28;20023;-35
2022/07/19 12:15:56;;;;;;;3.30;1.25;;;32.60;58.50;;;;;;5104919;28;20027;-36
2022/07/19 12:18:41;;;;;;;2.58;1.60;;;32.60;58.30;;;;;;5104497;28;20142;-36
2022/07/19 12:21:18;;;;;;;1.52;1.30;;;32.80;58.20;;;;;;5104664;28;20041;-36
2022/07/19 12:24:15;;;;;;;3.45;1.52;;;32.80;58.00;;;;;;5104208;28;20551;-35
2022/07/19 12:26:54;;;;;;;2.05;1.42;;;33.00;57.40;;;;;;5105062;28;20073;-36
2022/07/19 12:29:21;;;;;;;2.13;1.38;;;33.10;56.90;;;;;;5105395;28;20033;-35
2022/07/19 12:31:48;;;;;;;1.55;1.30;;;33.20;56.80;;;;;;5104671;28;20031;-35
2022/07/19 12:34:15;;;;;;;1.58;1.40;;;33.30;57.00;;;;;;5104902;28;20411;-35
2022/07/19 12:36:41;;;;;;;2.38;1.60;;;33.20;56.90;;;;;;5105122;28;20023;-36
2022/07/19 12:39:18;;;;;;;3.47;1.20;;;33.30;56.80;;;;;;5103870;28;20036;-36
2022/07/19 12:42:16;;;;;;;2.13;1.30;;;33.30;56.50;;;;;;5104932;28;20020;-36
2022/07/19 12:44:42;;;;;;;2.92;1.45;;;33.40;56.20;;;;;;5084319;28;20120;-36
2022/07/19 12:47:07;;;;;;;4.00;1.60;;;33.40;56.30;;;;;;5105152;28;20166;-36
2022/07/19 12:49:49;;;;;;;2.20;1.60;;;33.50;56.80;;;;;;5103826;28;20059;-36
2022/07/19 12:52:15;;;;;;;2.95;1.40;;;33.60;56.20;;;;;;5104459;28;20059;-35
2022/07/19 12:54:40;;;;;;;1.65;1.45;;;33.60;56.50;;;;;;5104699;28;20062;-36